createdAt,value
2023-03-03T00:00:35.453Z,30.90
2023-03-03T00:04:55.466Z,29.60
2023-03-03T00:08:59.268Z,31.27
2023-03-03T00:13:04.510Z,31.43
2023-03-03T00:17:22.540Z,32.43
2023-03-03T00:21:30.609Z,30.83
2023-03-03T00:25:38.508Z,31.27
2023-03-03T00:29:49.659Z,33.37
2023-03-03T00:33:57.066Z,32.93
2023-03-03T00:38:36.740Z,33.83
2023-03-03T00:42:40.409Z,31.97
2023-03-03T00:46:45.627Z,34.03
2023-03-03T00:50:54.609Z,35.23
2023-03-03T00:54:58.355Z,33.23
2023-03-03T00:59:01.946Z,33.23
2023-03-03T01:04:08.940Z,33.47
2023-03-03T01:08:15.036Z,34.83
2023-03-03T01:12:44.868Z,36.67
2023-03-03T01:16:50.434Z,34.87
2023-03-03T01:21:52.319Z,35.07
2023-03-03T01:25:57.558Z,34.47
2023-03-03T01:30:01.401Z,36.73
2023-03-03T01:34:23.486Z,37.00
2023-03-03T01:38:27.559Z,37.57
2023-03-03T01:42:32.814Z,36.07
2023-03-03T01:47:26.324Z,35.47
2023-03-03T01:51:32.582Z,33.77
2023-03-03T01:55:38.570Z,34.50
2023-03-03T02:00:10.549Z,35.20
2023-03-03T02:04:18.247Z,35.00
2023-03-03T02:08:25.220Z,36.07
2023-03-03T02:12:36.249Z,34.37
2023-03-03T02:16:42.091Z,35.00
2023-03-03T02:21:04.544Z,33.70
2023-03-03T02:25:12.781Z,30.80
2023-03-03T02:29:17.908Z,34.40
2023-03-03T02:33:30.737Z,33.27
2023-03-03T02:37:34.488Z,30.50
2023-03-03T02:41:42.354Z,33.20
2023-03-03T02:45:49.782Z,32.43
2023-03-03T02:49:53.521Z,32.43
2023-03-03T02:53:57.149Z,29.97
2023-03-03T02:58:02.645Z,29.00
2023-03-03T03:02:09.199Z,32.80
2023-03-03T03:06:13.218Z,34.07
2023-03-03T03:10:17.808Z,35.33
2023-03-03T03:14:24.174Z,32.27
2023-03-03T03:18:30.209Z,34.33
2023-03-03T03:22:35.008Z,32.03
2023-03-03T03:26:41.794Z,34.27
2023-03-03T03:30:46.965Z,32.33
2023-03-03T03:34:52.480Z,32.83
2023-03-03T03:39:18.714Z,32.67
2023-03-03T03:43:24.923Z,32.40
2023-03-03T03:47:29.546Z,33.47
2023-03-03T03:52:01.036Z,30.90
2023-03-03T03:56:29.412Z,32.13
2023-03-03T04:00:35.565Z,32.40
2023-03-03T04:04:39.312Z,32.87
2023-03-03T04:08:45.679Z,32.93
2023-03-03T04:12:49.428Z,33.60
2023-03-03T04:16:54.000Z,31.63
2023-03-03T04:21:08.192Z,34.00
2023-03-03T04:25:16.852Z,30.23
2023-03-03T04:30:06.724Z,31.57
2023-03-03T04:34:10.631Z,32.47
2023-03-03T04:38:15.564Z,32.50
2023-03-03T04:42:48.510Z,34.03
2023-03-03T04:46:52.405Z,32.70
2023-03-03T04:50:56.799Z,32.07
2023-03-03T04:55:01.044Z,32.23
2023-03-03T04:59:06.261Z,36.77
2023-03-03T05:03:11.148Z,35.80
2023-03-03T05:07:17.833Z,31.23
2023-03-03T05:11:21.336Z,34.07
2023-03-03T05:20:14.838Z,32.63
2023-03-03T05:24:23.955Z,33.90
2023-03-03T05:28:27.884Z,32.43
2023-03-03T05:32:31.576Z,33.00
2023-03-03T05:36:36.738Z,33.47
2023-03-03T05:40:40.742Z,32.53
2023-03-03T05:44:44.491Z,34.50
2023-03-03T05:48:48.338Z,33.53
2023-03-03T05:52:54.062Z,31.80
2023-03-03T05:56:59.791Z,33.20
2023-03-03T06:01:03.549Z,31.83
2023-03-03T06:05:08.845Z,34.03
2023-03-03T06:09:27.678Z,31.27
2023-03-03T06:13:31.305Z,32.80
2023-03-03T06:18:27.267Z,30.20
2023-03-03T06:22:30.944Z,32.10
2023-03-03T06:26:36.670Z,32.20
2023-03-03T06:30:40.458Z,31.07
2023-03-03T06:34:52.373Z,30.03
2023-03-03T06:38:56.091Z,32.63
2023-03-03T06:43:04.535Z,33.70
2023-03-03T06:47:08.248Z,34.43
2023-03-03T06:51:32.883Z,31.27
2023-03-03T06:55:36.424Z,31.87
2023-03-03T06:59:42.814Z,34.47
2023-03-03T07:03:47.801Z,32.17
2023-03-03T07:07:51.449Z,33.03
2023-03-03T07:11:58.000Z,33.33
2023-03-03T07:16:13.435Z,32.47
2023-03-03T07:20:24.561Z,31.03
2023-03-03T07:24:29.972Z,31.80
2023-03-03T07:28:35.167Z,30.37
2023-03-03T07:33:28.293Z,30.83
2023-03-03T07:37:46.967Z,31.23
2023-03-03T07:41:51.718Z,31.13
2023-03-03T07:45:57.540Z,29.70
2023-03-03T07:50:22.401Z,30.03
2023-03-03T07:54:42.662Z,30.87
2023-03-03T07:58:46.397Z,30.07
2023-03-03T08:03:08.114Z,29.67
2023-03-03T08:07:16.792Z,31.57
2023-03-03T08:11:22.967Z,31.07
2023-03-03T08:15:29.600Z,30.80
2023-03-03T08:19:33.399Z,30.97
2023-03-03T08:23:36.989Z,31.23
2023-03-03T08:27:43.144Z,33.17
2023-03-03T08:31:46.960Z,31.83
2023-03-03T08:35:51.089Z,31.20
2023-03-03T08:39:57.756Z,30.37
2023-03-03T08:44:02.759Z,31.57
2023-03-03T08:48:07.139Z,30.87
2023-03-03T08:53:15.617Z,29.17
2023-03-03T08:57:19.308Z,29.33
2023-03-03T09:01:24.603Z,31.37
2023-03-03T09:05:40.918Z,29.83
2023-03-03T09:09:44.569Z,30.80
2023-03-03T09:14:04.400Z,29.67
2023-03-03T09:18:17.755Z,29.13
2023-03-03T09:22:23.783Z,28.20
2023-03-03T09:26:53.801Z,27.53
2023-03-03T09:31:00.468Z,26.90
2023-03-03T09:35:36.900Z,25.87
2023-03-03T09:39:40.574Z,27.17
2023-03-03T09:44:29.003Z,28.83
2023-03-03T09:48:57.309Z,29.20
2023-03-03T09:53:29.558Z,29.13
2023-03-03T09:58:26.005Z,27.50
2023-03-03T10:02:47.369Z,31.53
2023-03-03T10:07:07.815Z,33.17
2023-03-03T10:11:28.188Z,33.27
2023-03-03T10:15:57.270Z,31.37
2023-03-03T10:20:15.251Z,29.60
2023-03-03T10:24:31.958Z,32.67
2023-03-03T10:29:04.050Z,32.40
2023-03-03T10:33:24.655Z,28.27
2023-03-03T10:38:05.872Z,31.63
2023-03-03T10:42:32.598Z,27.40
2023-03-03T10:47:15.384Z,36.50
2023-03-03T10:51:28.983Z,37.80
2023-03-03T10:56:16.383Z,30.70
2023-03-03T11:00:42.923Z,42.20
2023-03-03T11:05:15.519Z,26.80
2023-03-03T11:09:53.485Z,24.00
2023-03-03T11:14:03.167Z,24.77
2023-03-03T11:24:35.382Z,25.37
2023-03-03T11:29:04.734Z,26.73
2023-03-03T11:37:41.599Z,25.80
2023-03-03T11:42:11.327Z,23.17
2023-03-03T11:46:18.084Z,24.50
2023-03-03T11:50:25.655Z,24.50
2023-03-03T11:54:34.321Z,22.47
2023-03-03T11:58:46.948Z,26.73
2023-03-03T12:03:13.507Z,27.47
2023-03-03T12:07:32.964Z,24.87
2023-03-03T12:11:46.527Z,23.20
2023-03-03T12:16:06.717Z,25.20
2023-03-03T12:20:31.080Z,22.77
2023-03-03T12:25:03.084Z,21.00
2023-03-03T12:29:12.523Z,20.17
2023-03-03T12:33:49.883Z,21.53
2023-03-03T12:37:57.002Z,22.57
2023-03-03T12:42:25.696Z,21.60
2023-03-03T12:46:47.652Z,20.90
2023-03-03T12:51:18.202Z,20.00
2023-03-03T12:55:32.117Z,18.33
2023-03-03T12:59:46.970Z,20.70
2023-03-03T13:04:02.336Z,17.77
2023-03-03T13:08:50.829Z,14.40
2023-03-03T13:13:04.098Z,17.83
2023-03-03T13:17:24.881Z,17.27
2023-03-03T13:21:33.279Z,18.17
2023-03-03T13:25:49.422Z,16.10
2023-03-03T13:30:06.357Z,14.77
2023-03-03T13:34:22.053Z,15.40
2023-03-03T13:38:30.257Z,15.87
2023-03-03T13:42:49.289Z,15.90
2023-03-03T13:47:04.313Z,15.37
2023-03-03T13:51:22.949Z,15.47
2023-03-03T13:55:31.143Z,14.97
2023-03-03T13:59:59.692Z,16.27
2023-03-03T14:04:25.853Z,17.07
2023-03-03T14:08:45.618Z,17.23
2023-03-03T14:12:56.744Z,16.40
2023-03-03T14:17:09.690Z,16.80
2023-03-03T14:26:02.289Z,13.73
2023-03-03T14:30:38.223Z,14.87
2023-03-03T14:34:43.496Z,16.13
2023-03-03T14:38:51.942Z,15.43
2023-03-03T14:42:57.639Z,14.20
2023-03-03T14:47:22.673Z,15.07
2023-03-03T14:51:30.789Z,15.33
2023-03-03T14:55:38.895Z,13.70
2023-03-03T15:00:12.219Z,15.73
2023-03-03T15:04:32.563Z,19.40
2023-03-03T15:08:38.752Z,19.57
2023-03-03T15:12:44.095Z,18.07
2023-03-03T15:17:36.086Z,21.27
2023-03-03T15:22:08.160Z,16.80
2023-03-03T15:26:35.272Z,21.10
2023-03-03T15:35:17.157Z,16.53
2023-03-03T15:39:38.183Z,25.33
2023-03-03T15:43:56.819Z,16.10
2023-03-03T15:48:35.351Z,15.40
2023-03-03T15:52:54.807Z,14.40
2023-03-03T15:57:00.015Z,14.57
2023-03-03T16:01:17.924Z,14.07
2023-03-03T16:05:26.305Z,13.43
2023-03-03T16:09:44.819Z,12.33
2023-03-03T16:14:17.156Z,13.20
2023-03-03T16:19:01.297Z,12.50
2023-03-03T16:23:31.046Z,12.57
2023-03-03T16:28:05.811Z,12.37
2023-03-03T16:37:16.428Z,11.50
2023-03-03T16:41:24.996Z,12.77
2023-03-03T16:45:41.677Z,12.27
2023-03-03T16:49:56.829Z,11.27
2023-03-03T16:54:18.118Z,11.17
2023-03-03T16:58:40.638Z,11.53
2023-03-03T17:03:20.875Z,11.57
2023-03-03T17:07:58.468Z,13.47
2023-03-03T17:12:23.514Z,11.90
2023-03-03T17:16:51.063Z,12.80
2023-03-03T17:21:00.391Z,12.07
2023-03-03T17:25:17.141Z,13.17
2023-03-03T17:29:35.866Z,12.83
2023-03-03T17:34:05.117Z,12.37
2023-03-03T17:38:22.106Z,11.77
2023-03-03T17:42:44.907Z,13.30
2023-03-03T17:52:04.928Z,11.63
2023-03-03T17:56:33.173Z,15.33
2023-03-03T18:01:07.402Z,14.03
2023-03-03T18:05:47.886Z,12.43
2023-03-03T18:10:10.027Z,12.33
2023-03-03T18:14:44.224Z,11.07
2023-03-03T18:19:46.980Z,11.50
2023-03-03T18:23:52.265Z,12.80
2023-03-03T18:28:22.606Z,12.37
2023-03-03T18:32:44.565Z,13.10
2023-03-03T18:36:59.400Z,12.90
2023-03-03T18:41:06.902Z,14.73
2023-03-03T18:45:43.945Z,15.53
2023-03-03T18:50:10.620Z,15.13
2023-03-03T18:54:34.881Z,15.97
2023-03-03T18:58:42.257Z,15.17
2023-03-03T19:03:06.798Z,15.87
2023-03-03T19:07:28.016Z,15.27
2023-03-03T19:11:39.611Z,16.03
2023-03-03T19:16:05.762Z,16.00
2023-03-03T19:24:39.588Z,15.03
2023-03-03T19:28:59.234Z,15.67
2023-03-03T19:33:36.607Z,15.67
2023-03-03T19:38:00.248Z,16.50
2023-03-03T19:42:30.070Z,15.43
2023-03-03T19:46:46.916Z,15.07
2023-03-03T19:50:58.419Z,14.90
2023-03-03T19:55:20.604Z,16.20
2023-03-03T20:04:54.826Z,14.57
2023-03-03T20:09:05.244Z,14.93
2023-03-03T20:13:23.058Z,15.47
2023-03-03T20:18:01.452Z,16.00
2023-03-03T20:22:58.982Z,15.60
2023-03-03T20:27:06.826Z,13.63
2023-03-03T20:31:47.222Z,15.80
2023-03-03T20:36:01.824Z,14.37
2023-03-03T20:40:29.711Z,14.97
2023-03-03T20:45:01.387Z,14.43
2023-03-03T20:49:44.443Z,14.70
2023-03-03T20:54:07.904Z,14.03
2023-03-03T21:03:12.466Z,15.20
2023-03-03T21:07:30.896Z,15.60
2023-03-03T21:11:50.737Z,15.10
2023-03-03T21:15:59.192Z,14.20
2023-03-03T21:20:32.182Z,15.20
2023-03-03T21:25:01.808Z,13.97
2023-03-03T21:29:05.394Z,12.27
2023-03-03T21:33:40.416Z,14.70
2023-03-03T21:37:55.416Z,13.13
2023-03-03T21:42:02.273Z,14.03
2023-03-03T21:47:23.831Z,13.53
2023-03-03T21:51:29.139Z,13.23
2023-03-03T21:55:34.257Z,13.50
2023-03-03T21:59:40.183Z,14.77
2023-03-03T22:03:45.822Z,14.07
2023-03-03T22:07:56.650Z,12.43
2023-03-03T22:12:01.773Z,13.60
2023-03-03T22:16:07.889Z,13.80
2023-03-03T22:20:15.458Z,14.03
2023-03-03T22:24:19.462Z,14.10
2023-03-03T22:29:28.177Z,14.57
2023-03-03T22:33:33.325Z,13.30
2023-03-03T22:37:39.968Z,13.83
2023-03-03T22:41:47.041Z,13.93
2023-03-03T22:45:50.885Z,13.00
2023-03-03T22:49:56.200Z,14.00
2023-03-03T22:54:00.139Z,14.10
2023-03-03T22:58:03.927Z,14.07
2023-03-03T23:02:07.771Z,12.60
2023-03-03T23:06:12.876Z,13.40
2023-03-03T23:10:41.469Z,14.43
2023-03-03T23:14:45.145Z,13.67
2023-03-03T23:18:48.698Z,13.67
2023-03-03T23:22:54.036Z,13.23
2023-03-03T23:28:00.725Z,13.90
2023-03-03T23:32:05.466Z,13.87
2023-03-03T23:36:09.726Z,13.47
2023-03-03T23:40:23.246Z,13.10
2023-03-03T23:44:26.927Z,13.57
2023-03-03T23:49:19.856Z,12.47
2023-03-03T23:54:25.038Z,12.77
2023-03-03T23:58:30.196Z,12.57
